Pagrindinis puslapis
METAR-TAF:

METAR-TAF

Oro uostai :

Uedas, Alžyras

platuma: 33-30-47N, ilguma: 006-46-57E, Aukštis: 62 m

Dabartinis oras

Ataskaita buvo paskelbta 24 minutes, ne 22:00 UTC
Vėjas 10 kt iš Rytų/Pietryčių
Temperatūra 37°C
Drėgmė 17%
Slėgis 1014 hPa
Matomumas 10 km arba daugiau
nėra debesų žemiau 1500 m ir nėra kamuolinių lietaus debesų

METAR: DAUO 182200Z 11010KT CAVOK 37/08 Q1014

Laikas: 23:24 (22:24 UTC)

Prognozė

Ataskaita buvo paskelbta 2 valandos ir 24 minutes, ne 20:00 UTC
Prognozė galioja nuo 18 metu 21 UTC su 19 metu 06 UTC
Vėjas 10 kt iš Rytų
Matomumas 10 km arba daugiau
nėra debesų žemiau 1500 m ir nėra kamuolinių lietaus debesų

TAF: DAUO 182000Z 1821/1906 10010KT CAVOK

Orai ataskaitas ir orų prognozės (METAR, TAF).

turimą stotys yra geltonos ir raudonos taškus žemėlapyje.

Perkelti pele per norėdami pamatyti stoties vardą.

Tada spustelėkite, norėdami matyti oro stebėjimo ir prognozės.

Norėdami pakeisti žemėlapį: spustelėkite ant žalios mygtukų su juodo kryžiaus žemyn,; žalią mygtuką su brūkšneliu, jei norite nutolinti; arba žalių rodyklių gretimoms žemėlapius.


METAR-TAF: